Time;durP1;ratioP1;P1;durP2;ratioP2;P2;SDS_P1;SDS_P2;PMS_P1;PMS_P2;Temp;Humidity;BMP_temperature;BMP_pressure;BME280_temperature;BME280_humidity;BME280_pressure;Samples;Min_cycle;Max_cycle;Signal;HPM_P1;HPM_P2
2023/12/26 00:00:20;;;;;;;2.22;1.40;;;9.90;99.90;;;;;;5045384;28;20071;-74
2023/12/26 00:02:46;;;;;;;1.50;1.30;;;9.90;99.90;;;;;;5058390;28;20045;-73
2023/12/26 00:05:12;;;;;;;0.88;0.80;;;9.90;99.90;;;;;;5041716;28;20571;-73
2023/12/26 00:07:37;;;;;;;1.52;0.80;;;9.90;99.90;;;;;;5038291;28;20044;-73
2023/12/26 00:10:03;;;;;;;1.27;1.17;;;9.90;99.90;;;;;;5036656;28;20037;-74
2023/12/26 00:12:29;;;;;;;1.42;1.10;;;9.90;99.90;;;;;;5037092;28;20095;-74
2023/12/26 00:14:55;;;;;;;2.00;1.10;;;9.90;99.90;;;;;;5038081;28;20037;-74
2023/12/26 00:17:20;;;;;;;1.67;1.20;;;9.90;99.90;;;;;;5044349;28;20045;-73
2023/12/26 00:19:46;;;;;;;1.45;1.05;;;9.90;99.90;;;;;;5043335;28;20037;-74
2023/12/26 00:22:12;;;;;;;1.10;1.00;;;9.90;99.90;;;;;;5042195;28;20091;-74
2023/12/26 00:24:38;;;;;;;1.17;1.00;;;9.90;99.90;;;;;;5040656;28;20044;-74
2023/12/26 00:27:04;;;;;;;0.75;0.43;;;9.90;99.90;;;;;;5036883;28;20068;-73
2023/12/26 00:29:29;;;;;;;0.90;0.82;;;9.90;99.90;;;;;;5035626;28;20041;-74
2023/12/26 00:31:55;;;;;;;0.60;0.47;;;9.90;99.90;;;;;;5065168;28;20045;-73
2023/12/26 00:34:20;;;;;;;0.50;0.40;;;9.90;99.90;;;;;;5041649;28;20132;-73
2023/12/26 00:36:46;;;;;;;1.05;0.60;;;9.90;99.90;;;;;;5037622;28;20040;-74
2023/12/26 00:39:14;;;;;;;1.55;0.70;;;9.90;99.90;;;;;;5040327;28;20040;-73
2023/12/26 00:41:40;;;;;;;1.83;0.80;;;10.00;99.90;;;;;;5040299;28;20163;-74
2023/12/26 00:44:05;;;;;;;1.02;0.60;;;9.90;99.90;;;;;;5033170;28;20048;-73
2023/12/26 00:46:32;;;;;;;1.35;0.80;;;9.90;99.90;;;;;;5034507;28;20061;-73
2023/12/26 00:48:58;;;;;;;2.30;0.90;;;9.90;99.90;;;;;;5041543;28;20064;-73
2023/12/26 00:51:25;;;;;;;1.50;0.82;;;9.90;99.90;;;;;;5036812;28;20037;-74
2023/12/26 00:53:50;;;;;;;1.63;1.00;;;9.90;99.90;;;;;;5031329;28;20045;-74
2023/12/26 00:56:16;;;;;;;1.05;0.77;;;9.90;99.90;;;;;;5035419;28;20312;-74
2023/12/26 00:58:43;;;;;;;1.05;0.55;;;9.90;99.90;;;;;;5044463;28;20041;-74
2023/12/26 01:01:09;;;;;;;0.90;0.80;;;9.90;99.90;;;;;;5035640;28;20063;-73
2023/12/26 01:03:35;;;;;;;1.45;0.70;;;9.90;99.90;;;;;;5037725;28;20041;-74
2023/12/26 01:06:01;;;;;;;5.25;0.95;;;9.90;99.90;;;;;;5040159;28;20053;-73
2023/12/26 01:08:27;;;;;;;0.93;0.85;;;9.90;99.90;;;;;;5038648;28;20056;-74
2023/12/26 01:10:53;;;;;;;3.08;0.70;;;9.90;99.90;;;;;;5043335;28;20531;-74
2023/12/26 01:13:18;;;;;;;3.33;1.00;;;9.90;99.90;;;;;;5041757;28;20040;-74
2023/12/26 01:15:44;;;;;;;1.30;0.50;;;9.80;99.90;;;;;;5042391;28;20127;-74
2023/12/26 01:18:10;;;;;;;0.50;0.30;;;9.90;99.90;;;;;;5042094;28;20048;-73
2023/12/26 01:20:36;;;;;;;0.82;0.55;;;10.00;99.90;;;;;;5044439;28;20099;-73
2023/12/26 01:23:02;;;;;;;1.40;0.60;;;10.00;99.90;;;;;;5046215;28;20124;-74
2023/12/26 01:25:28;;;;;;;0.90;0.30;;;10.00;99.90;;;;;;5047481;28;20076;-74
2023/12/26 01:27:54;;;;;;;0.70;0.60;;;10.10;99.90;;;;;;5036745;28;20108;-74
2023/12/26 01:30:20;;;;;;;0.98;0.60;;;10.10;99.90;;;;;;5034759;28;20303;-73
2023/12/26 01:32:45;;;;;;;1.25;0.68;;;10.10;99.90;;;;;;5029420;28;20053;-73
2023/12/26 01:35:11;;;;;;;1.67;0.50;;;10.10;99.90;;;;;;5038046;28;20032;-73
2023/12/26 01:37:37;;;;;;;1.63;0.40;;;10.10;99.90;;;;;;5043886;28;20056;-74
2023/12/26 01:40:03;;;;;;;1.63;0.50;;;10.10;99.90;;;;;;5042790;28;20447;-74
2023/12/26 01:42:29;;;;;;;0.98;0.40;;;10.10;99.90;;;;;;5042505;28;20052;-73
2023/12/26 01:44:54;;;;;;;0.88;0.22;;;10.10;99.90;;;;;;5041690;28;20465;-73
2023/12/26 01:47:21;;;;;;;1.02;0.45;;;10.00;99.90;;;;;;5035779;28;20037;-73
2023/12/26 01:49:47;;;;;;;0.20;0.20;;;9.90;99.90;;;;;;5044845;28;20397;-73
2023/12/26 01:52:19;;;;;;;1.10;0.25;;;9.90;99.90;;;;;;5041657;28;20556;-74
2023/12/26 01:54:45;;;;;;;1.80;0.30;;;9.90;99.90;;;;;;5044597;28;20420;-73
2023/12/26 01:57:11;;;;;;;0.60;0.30;;;9.90;99.90;;;;;;5039870;28;20041;-74
2023/12/26 01:59:38;;;;;;;2.53;0.60;;;9.90;99.90;;;;;;5041850;28;20044;-73
2023/12/26 02:02:05;;;;;;;2.67;0.57;;;9.90;99.90;;;;;;5043044;28;20041;-73
2023/12/26 02:04:31;;;;;;;1.65;0.30;;;9.90;99.90;;;;;;5045165;28;20116;-73
2023/12/26 02:06:57;;;;;;;1.08;0.22;;;9.90;99.90;;;;;;5041145;28;20068;-74
2023/12/26 02:09:26;;;;;;;1.30;0.30;;;9.90;99.90;;;;;;5043422;28;20083;-74
2023/12/26 02:11:53;;;;;;;3.53;0.95;;;9.80;99.90;;;;;;5040012;28;20045;-73
2023/12/26 02:14:19;;;;;;;6.05;1.00;;;9.80;99.90;;;;;;5041937;28;20124;-73
2023/12/26 02:16:47;;;;;;;4.50;0.50;;;9.90;99.90;;;;;;5042669;28;20049;-74
2023/12/26 02:19:14;;;;;;;1.98;0.30;;;9.90;99.90;;;;;;5047305;28;20048;-74
2023/12/26 02:21:40;;;;;;;2.72;0.52;;;9.90;99.90;;;;;;5048261;28;20045;-73
2023/12/26 02:24:06;;;;;;;5.53;1.08;;;9.80;99.90;;;;;;5047426;28;20094;-74
2023/12/26 02:26:35;;;;;;;5.43;1.02;;;9.90;99.90;;;;;;5047942;28;20536;-73
2023/12/26 02:29:02;;;;;;;6.97;1.45;;;9.90;99.90;;;;;;5047220;28;20120;-74
2023/12/26 02:31:29;;;;;;;8.02;1.30;;;9.90;99.90;;;;;;5045549;28;20488;-74
2023/12/26 02:33:55;;;;;;;6.75;1.60;;;9.90;99.90;;;;;;5044652;28;20499;-73
2023/12/26 02:36:21;;;;;;;5.40;1.63;;;9.90;99.90;;;;;;5044492;28;20041;-73
2023/12/26 02:38:47;;;;;;;5.72;1.25;;;9.90;99.90;;;;;;5039261;28;21841;-74
2023/12/26 02:41:13;;;;;;;8.07;1.20;;;9.90;99.90;;;;;;5045277;28;20033;-73
2023/12/26 02:43:38;;;;;;;8.40;1.60;;;9.90;99.90;;;;;;5041715;28;20480;-73
2023/12/26 02:46:04;;;;;;;6.72;1.40;;;9.90;99.90;;;;;;5047634;28;20045;-74
2023/12/26 02:48:30;;;;;;;1.63;0.52;;;9.90;99.90;;;;;;5041331;28;20064;-74
2023/12/26 02:50:55;;;;;;;6.95;1.00;;;9.90;99.90;;;;;;5046179;28;20118;-74
2023/12/26 02:53:21;;;;;;;5.13;1.13;;;9.80;99.90;;;;;;5049201;28;20048;-74
2023/12/26 02:55:55;;;;;;;8.93;1.70;;;9.80;99.90;;;;;;5047044;28;20132;-74
2023/12/26 02:58:21;;;;;;;7.70;1.60;;;9.90;99.90;;;;;;5040799;28;20067;-73
2023/12/26 03:00:47;;;;;;;10.57;1.90;;;9.90;99.90;;;;;;5045545;28;20065;-74
2023/12/26 03:03:13;;;;;;;4.93;0.85;;;9.90;99.90;;;;;;5044847;28;20053;-74
2023/12/26 03:05:38;;;;;;;11.00;2.00;;;9.90;99.90;;;;;;5045587;28;20049;-74
2023/12/26 03:08:05;;;;;;;9.15;2.13;;;9.90;99.90;;;;;;5037312;28;20089;-73
2023/12/26 03:10:30;;;;;;;7.57;2.30;;;9.90;99.90;;;;;;5046000;28;20075;-73
2023/12/26 03:12:56;;;;;;;5.07;1.08;;;9.90;99.90;;;;;;5047637;28;20069;-74
2023/12/26 03:15:22;;;;;;;9.55;1.20;;;9.90;99.90;;;;;;5045826;28;20041;-73
2023/12/26 03:17:48;;;;;;;11.85;2.40;;;9.90;99.90;;;;;;5047946;28;20052;-73
2023/12/26 03:20:14;;;;;;;3.30;1.00;;;9.90;99.90;;;;;;5045546;28;20045;-73
2023/12/26 03:22:40;;;;;;;11.48;2.13;;;9.90;99.90;;;;;;5047221;28;20563;-73
2023/12/26 03:25:06;;;;;;;9.43;2.47;;;9.90;99.90;;;;;;5042620;28;20037;-73
2023/12/26 03:27:32;;;;;;;7.00;1.00;;;9.90;99.90;;;;;;5040626;28;20378;-73
2023/12/26 03:29:58;;;;;;;11.95;2.17;;;9.90;99.90;;;;;;5044336;28;20124;-73
2023/12/26 03:32:23;;;;;;;7.95;0.80;;;9.90;99.90;;;;;;5048541;28;20102;-73
2023/12/26 03:34:49;;;;;;;4.50;1.02;;;9.90;99.90;;;;;;5044604;28;20064;-73
2023/12/26 03:37:15;;;;;;;10.07;2.28;;;9.90;99.90;;;;;;5048204;28;20614;-73
2023/12/26 03:39:41;;;;;;;13.40;2.75;;;9.90;99.90;;;;;;5046554;28;20503;-73
2023/12/26 03:42:07;;;;;;;9.45;2.47;;;9.90;99.90;;;;;;5047175;28;20043;-73
2023/12/26 03:44:33;;;;;;;9.45;2.47;;;9.90;99.90;;;;;;5043605;28;20120;-73
2023/12/26 03:46:58;;;;;;;5.05;1.17;;;10.00;99.90;;;;;;5042144;28;20132;-73
2023/12/26 03:49:24;;;;;;;8.73;1.92;;;10.00;99.90;;;;;;5047466;28;20357;-73
2023/12/26 03:51:50;;;;;;;9.10;1.88;;;10.00;99.90;;;;;;5044148;28;20067;-73
2023/12/26 03:54:16;;;;;;;7.15;2.20;;;10.00;99.90;;;;;;5046690;28;20427;-73
2023/12/26 03:56:41;;;;;;;8.30;1.92;;;10.00;99.90;;;;;;5046433;28;20070;-73
2023/12/26 03:59:07;;;;;;;9.02;1.98;;;10.00;99.90;;;;;;5046409;28;20044;-73
2023/12/26 04:01:33;;;;;;;9.32;2.05;;;10.00;99.90;;;;;;5043131;28;20041;-73
2023/12/26 04:03:59;;;;;;;7.10;1.80;;;10.10;99.90;;;;;;5043517;28;20056;-74
2023/12/26 04:06:25;;;;;;;8.95;2.00;;;10.10;99.90;;;;;;5059413;28;20037;-73
2023/12/26 04:08:50;;;;;;;7.97;1.70;;;10.10;99.90;;;;;;5046200;28;20377;-74
2023/12/26 04:11:16;;;;;;;10.07;2.03;;;10.10;99.90;;;;;;5038922;28;20064;-74
2023/12/26 04:13:42;;;;;;;7.18;1.40;;;10.00;99.90;;;;;;5048411;28;20496;-73
2023/12/26 04:16:08;;;;;;;10.13;1.90;;;9.90;99.90;;;;;;5048024;28;20049;-73
2023/12/26 04:18:33;;;;;;;7.00;1.40;;;9.90;99.90;;;;;;5039477;28;20450;-73
2023/12/26 04:20:59;;;;;;;6.20;1.60;;;9.80;99.90;;;;;;5044783;28;20048;-73
2023/12/26 04:23:25;;;;;;;9.52;1.88;;;9.80;99.90;;;;;;5044045;28;20056;-73
2023/12/26 04:25:51;;;;;;;6.97;1.25;;;9.70;99.90;;;;;;5047687;28;20041;-73
2023/12/26 04:28:17;;;;;;;9.55;2.20;;;9.70;99.90;;;;;;5047860;28;20139;-73
2023/12/26 04:30:42;;;;;;;9.82;1.80;;;9.60;99.90;;;;;;5042947;28;20123;-73
2023/12/26 04:33:10;;;;;;;9.60;2.10;;;9.50;99.90;;;;;;5044076;28;20045;-73
2023/12/26 04:35:36;;;;;;;7.90;1.58;;;9.40;99.90;;;;;;5042737;28;20053;-73
2023/12/26 04:38:02;;;;;;;8.15;1.70;;;9.30;99.90;;;;;;5042500;28;20412;-73
2023/12/26 04:40:28;;;;;;;12.55;2.22;;;9.20;99.90;;;;;;5064820;28;20064;-73
2023/12/26 04:42:54;;;;;;;14.02;2.50;;;9.20;99.90;;;;;;5045522;28;20048;-73
2023/12/26 04:45:20;;;;;;;10.52;2.25;;;9.10;99.90;;;;;;5040878;28;20037;-73
2023/12/26 04:47:46;;;;;;;10.98;2.28;;;9.00;99.90;;;;;;5045384;28;20076;-73
2023/12/26 04:50:11;;;;;;;11.13;2.13;;;8.90;99.90;;;;;;5043853;28;20380;-73
2023/12/26 04:52:37;;;;;;;6.93;1.38;;;8.90;99.90;;;;;;5048619;28;20132;-73
2023/12/26 04:55:03;;;;;;;12.77;2.67;;;8.80;99.90;;;;;;5039220;28;20064;-73
2023/12/26 04:57:29;;;;;;;8.85;1.13;;;8.70;99.90;;;;;;5037099;28;20982;-73
2023/12/26 04:59:55;;;;;;;6.18;1.25;;;8.60;99.90;;;;;;5039823;28;20136;-73
2023/12/26 05:02:21;;;;;;;10.77;1.30;;;8.60;99.90;;;;;;5037558;28;20102;-73
2023/12/26 05:04:47;;;;;;;7.88;1.70;;;8.50;99.90;;;;;;5048581;28;20504;-73
2023/12/26 05:07:13;;;;;;;11.88;1.95;;;8.40;99.90;;;;;;5042605;28;20056;-73
2023/12/26 05:09:38;;;;;;;7.05;1.27;;;8.40;99.90;;;;;;5040337;28;20479;-73
2023/12/26 05:12:06;;;;;;;10.93;1.42;;;8.30;99.90;;;;;;5049342;28;20080;-73
2023/12/26 05:14:32;;;;;;;6.35;1.05;;;8.30;99.90;;;;;;5044314;28;20033;-73
2023/12/26 05:16:58;;;;;;;13.10;2.17;;;8.30;99.90;;;;;;5041239;28;20047;-73
2023/12/26 05:19:23;;;;;;;3.28;0.80;;;8.30;99.90;;;;;;5043980;28;20045;-73
2023/12/26 05:21:51;;;;;;;7.18;1.45;;;8.20;99.90;;;;;;5044590;28;20170;-73
2023/12/26 05:24:17;;;;;;;5.35;1.13;;;8.20;99.90;;;;;;5041331;28;20055;-73
2023/12/26 05:26:43;;;;;;;6.45;1.10;;;8.20;99.90;;;;;;5038043;28;20045;-73
2023/12/26 05:29:10;;;;;;;5.78;1.02;;;8.20;99.90;;;;;;5044260;28;20104;-73
2023/12/26 05:31:36;;;;;;;6.80;1.30;;;8.20;99.90;;;;;;5046192;28;20048;-73
2023/12/26 05:34:04;;;;;;;10.60;2.15;;;8.20;99.90;;;;;;5040067;28;20299;-73
2023/12/26 05:36:30;;;;;;;7.28;1.10;;;8.20;99.90;;;;;;5043067;28;20041;-73
2023/12/26 05:38:56;;;;;;;9.83;1.13;;;8.20;99.90;;;;;;5045722;28;20048;-73
2023/12/26 05:41:23;;;;;;;6.00;1.13;;;8.20;99.90;;;;;;5040361;28;20083;-73
2023/12/26 05:43:49;;;;;;;8.57;0.98;;;8.10;99.90;;;;;;5044345;28;20326;-73
2023/12/26 05:46:14;;;;;;;8.27;0.90;;;8.10;99.90;;;;;;5041573;28;20037;-73
2023/12/26 05:48:43;;;;;;;6.15;1.20;;;8.20;99.90;;;;;;5043606;28;20087;-73
2023/12/26 05:51:09;;;;;;;7.03;1.48;;;8.20;99.90;;;;;;5047359;28;20064;-73
2023/12/26 05:53:35;;;;;;;9.00;1.30;;;8.20;99.90;;;;;;5038520;28;20088;-73
2023/12/26 05:56:01;;;;;;;7.30;1.23;;;8.20;99.90;;;;;;5043147;28;20049;-73
2023/12/26 05:58:27;;;;;;;8.73;1.80;;;8.20;99.90;;;;;;5041067;28;20126;-73
2023/12/26 06:00:54;;;;;;;3.13;1.00;;;8.20;99.90;;;;;;5048213;28;20049;-73
2023/12/26 06:03:19;;;;;;;6.25;1.20;;;8.20;99.90;;;;;;5045106;28;20041;-74
2023/12/26 06:05:46;;;;;;;9.27;2.30;;;8.20;99.90;;;;;;5048193;28;20056;-73
2023/12/26 06:08:15;;;;;;;3.85;1.23;;;8.30;99.90;;;;;;5046920;28;20087;-73
2023/12/26 06:10:41;;;;;;;5.38;1.42;;;8.30;99.90;;;;;;5043058;28;20528;-73
2023/12/26 06:13:07;;;;;;;8.20;1.02;;;8.40;99.90;;;;;;5043733;28;20033;-73
2023/12/26 06:15:32;;;;;;;6.43;1.10;;;8.40;99.90;;;;;;5045496;28;20477;-73
2023/12/26 06:17:59;;;;;;;10.15;2.00;;;8.40;99.90;;;;;;5046826;28;20048;-73
2023/12/26 06:20:27;;;;;;;5.53;1.13;;;8.50;99.90;;;;;;5060185;28;20618;-73
2023/12/26 06:22:53;;;;;;;9.30;1.20;;;8.60;99.90;;;;;;5048437;28;20041;-73
2023/12/26 06:25:19;;;;;;;5.17;1.37;;;8.60;99.90;;;;;;5044559;28;20061;-73
2023/12/26 06:27:45;;;;;;;5.78;1.10;;;8.70;99.90;;;;;;5057278;28;20944;-73
2023/12/26 06:30:12;;;;;;;8.70;1.10;;;8.70;99.90;;;;;;5044646;28;20053;-73
2023/12/26 06:32:37;;;;;;;9.10;2.05;;;8.70;99.90;;;;;;5059430;28;20041;-74
2023/12/26 06:35:03;;;;;;;8.30;1.45;;;8.80;99.90;;;;;;5046709;28;20051;-73
2023/12/26 06:37:29;;;;;;;4.32;1.17;;;8.80;99.90;;;;;;5048179;28;20531;-73
2023/12/26 06:39:55;;;;;;;8.40;1.15;;;8.80;99.90;;;;;;5047831;28;20050;-73
2023/12/26 06:42:21;;;;;;;8.35;1.58;;;8.80;99.90;;;;;;5048555;28;20611;-73
2023/12/26 06:44:47;;;;;;;10.13;1.25;;;8.80;99.90;;;;;;5046801;28;20531;-73
2023/12/26 06:47:13;;;;;;;7.50;1.30;;;8.80;99.90;;;;;;5044506;28;20094;-73
2023/12/26 06:49:45;;;;;;;7.63;1.38;;;8.80;99.90;;;;;;5043936;28;20401;-73
2023/12/26 06:52:14;;;;;;;9.45;1.48;;;8.80;99.90;;;;;;5046269;28;20049;-73
2023/12/26 06:54:41;;;;;;;5.35;1.35;;;8.80;99.90;;;;;;5045474;28;20128;-73
2023/12/26 06:57:08;;;;;;;6.18;1.33;;;8.80;99.90;;;;;;5042794;28;20866;-73
2023/12/26 06:59:34;;;;;;;;;;;8.80;99.90;;;;;;5044287;28;20061;-73
2023/12/26 07:02:00;;;;;;;5.65;1.15;;;8.80;99.90;;;;;;5045199;28;19992;-73
2023/12/26 07:04:27;;;;;;;8.77;1.00;;;8.80;99.90;;;;;;5049117;28;20052;-73
2023/12/26 07:06:52;;;;;;;12.00;2.70;;;8.90;99.90;;;;;;5044590;28;20170;-73
2023/12/26 07:09:18;;;;;;;9.98;1.45;;;8.90;99.90;;;;;;5043741;28;20446;-73
2023/12/26 07:11:44;;;;;;;20.23;1.67;;;8.90;99.90;;;;;;5040882;28;20091;-73
2023/12/26 07:14:09;;;;;;;8.20;1.08;;;8.90;99.90;;;;;;5043669;28;20564;-73
2023/12/26 07:16:35;;;;;;;8.85;2.05;;;8.90;99.90;;;;;;5046341;28;20049;-73
2023/12/26 07:19:01;;;;;;;12.23;2.53;;;8.90;99.90;;;;;;5048113;28;20081;-73
2023/12/26 07:21:27;;;;;;;10.07;2.80;;;8.90;99.90;;;;;;5044277;28;20048;-73
2023/12/26 07:23:53;;;;;;;10.52;1.52;;;8.90;99.90;;;;;;5045430;28;20050;-73
2023/12/26 07:26:22;;;;;;;9.00;1.23;;;8.90;99.90;;;;;;5042754;28;20048;-73
2023/12/26 07:28:47;;;;;;;5.50;1.30;;;8.90;99.90;;;;;;5043951;28;20032;-73
2023/12/26 07:31:20;;;;;;;10.45;1.40;;;8.90;99.90;;;;;;5076566;28;20502;-73
2023/12/26 07:33:47;;;;;;;11.65;1.70;;;8.90;99.90;;;;;;5059314;28;20099;-73
2023/12/26 07:36:14;;;;;;;15.02;2.75;;;8.90;99.90;;;;;;5046733;28;20049;-73
2023/12/26 07:38:40;;;;;;;14.40;2.83;;;8.90;99.90;;;;;;5045129;28;20067;-73
2023/12/26 07:41:05;;;;;;;15.50;3.08;;;8.90;99.90;;;;;;5044789;28;20041;-73
2023/12/26 07:43:32;;;;;;;15.88;3.20;;;8.90;99.90;;;;;;5036688;28;20218;-74
2023/12/26 07:45:58;;;;;;;15.67;3.03;;;9.00;99.90;;;;;;5033628;28;20045;-74
2023/12/26 07:48:23;;;;;;;12.68;3.20;;;9.00;99.90;;;;;;5037884;28;20627;-74
2023/12/26 07:50:49;;;;;;;8.95;2.78;;;9.00;99.90;;;;;;5048299;28;20492;-75
2023/12/26 07:53:15;;;;;;;9.10;1.35;;;9.00;99.90;;;;;;5034955;28;20080;-74
2023/12/26 07:55:41;;;;;;;10.43;2.28;;;8.90;99.90;;;;;;5040341;28;20484;-74
2023/12/26 07:58:08;;;;;;;5.93;0.95;;;8.90;99.90;;;;;;5046810;28;20095;-76
2023/12/26 08:00:34;;;;;;;15.18;3.72;;;8.90;99.90;;;;;;5044070;28;20049;-73
2023/12/26 08:03:00;;;;;;;6.53;1.20;;;8.80;99.90;;;;;;5033808;28;20431;-73
2023/12/26 08:05:26;;;;;;;12.77;3.53;;;8.90;99.90;;;;;;5042288;28;20111;-73
2023/12/26 08:07:52;;;;;;;9.38;1.90;;;8.90;99.90;;;;;;5064900;28;20048;-73
2023/12/26 08:10:17;;;;;;;11.32;1.42;;;8.90;99.90;;;;;;5042882;28;20033;-73
2023/12/26 08:12:44;;;;;;;5.57;1.20;;;8.80;99.90;;;;;;5040686;28;20052;-73
2023/12/26 08:15:10;;;;;;;11.18;1.48;;;8.80;99.90;;;;;;5066304;28;20132;-73
2023/12/26 08:17:36;;;;;;;9.80;1.33;;;8.70;99.90;;;;;;5037019;28;20067;-72
2023/12/26 08:20:03;;;;;;;13.67;2.93;;;8.70;99.90;;;;;;5042652;28;20787;-72
2023/12/26 08:22:30;;;;;;;16.55;3.33;;;8.70;99.90;;;;;;5034925;28;20044;-73
2023/12/26 08:24:55;;;;;;;9.18;1.42;;;8.80;99.90;;;;;;5044326;28;20170;-73
2023/12/26 08:27:22;;;;;;;6.95;1.40;;;8.80;99.90;;;;;;5041433;28;20049;-72
2023/12/26 08:29:49;;;;;;;11.73;2.65;;;8.80;99.90;;;;;;5034066;28;20455;-73
2023/12/26 08:32:15;;;;;;;6.88;1.40;;;8.80;99.90;;;;;;5045627;28;20110;-73
2023/12/26 08:34:44;;;;;;;15.60;3.25;;;8.80;99.90;;;;;;5046203;28;20037;-73
2023/12/26 08:37:13;;;;;;;17.75;3.78;;;8.80;99.90;;;;;;5034257;28;20111;-72
2023/12/26 08:39:39;;;;;;;10.90;2.08;;;8.80;99.90;;;;;;5042471;28;20049;-72
2023/12/26 08:42:06;;;;;;;13.73;1.73;;;8.80;99.90;;;;;;5047089;28;20043;-72
2023/12/26 08:44:31;;;;;;;17.92;3.40;;;8.80;99.90;;;;;;5042589;28;20052;-72
2023/12/26 08:47:04;;;;;;;16.55;3.33;;;8.80;99.90;;;;;;5039373;28;20052;-72
2023/12/26 08:49:30;;;;;;;7.85;1.58;;;8.90;99.90;;;;;;5041579;28;20055;-72
2023/12/26 08:51:56;;;;;;;14.68;2.22;;;8.80;99.90;;;;;;5035245;28;20516;-73
2023/12/26 08:54:22;;;;;;;15.07;3.28;;;8.80;99.90;;;;;;5049575;28;20040;-75
2023/12/26 08:56:48;;;;;;;14.95;2.08;;;8.80;99.90;;;;;;5036700;28;20047;-76
2023/12/26 08:59:14;;;;;;;10.93;2.55;;;8.90;99.90;;;;;;5041241;28;20064;-75
2023/12/26 09:01:39;;;;;;;18.27;3.55;;;8.80;99.90;;;;;;5043008;28;20053;-75
2023/12/26 09:04:06;;;;;;;14.75;2.92;;;8.80;99.90;;;;;;5038532;28;20068;-75
2023/12/26 09:06:33;;;;;;;14.65;2.92;;;8.90;99.90;;;;;;5036348;28;20044;-74
2023/12/26 09:08:59;;;;;;;5.82;1.15;;;8.90;99.90;;;;;;5046887;28;20064;-74
2023/12/26 09:11:25;;;;;;;7.72;1.55;;;8.90;99.90;;;;;;5047759;28;20709;-73
2023/12/26 09:13:50;;;;;;;12.52;1.80;;;8.90;99.90;;;;;;5046330;28;20400;-74
2023/12/26 09:16:16;;;;;;;15.88;3.15;;;8.80;99.90;;;;;;5047217;28;20147;-73
2023/12/26 09:18:42;;;;;;;13.55;3.38;;;8.70;99.90;;;;;;5046380;28;20052;-73
2023/12/26 09:21:08;;;;;;;16.15;3.40;;;8.90;99.90;;;;;;5037263;28;20045;-73
2023/12/26 09:23:33;;;;;;;7.18;1.15;;;8.90;99.90;;;;;;5047747;28;20072;-74
2023/12/26 09:26:03;;;;;;;15.55;3.00;;;8.90;99.90;;;;;;5041091;28;20045;-74
2023/12/26 09:28:29;;;;;;;13.73;3.35;;;8.90;99.90;;;;;;5038043;28;20061;-74
2023/12/26 09:30:55;;;;;;;13.25;3.03;;;8.90;99.90;;;;;;5051655;28;20041;-73
2023/12/26 09:33:21;;;;;;;18.02;4.15;;;8.90;99.90;;;;;;5058846;28;20037;-74
2023/12/26 09:35:46;;;;;;;16.13;3.50;;;8.90;99.90;;;;;;5056408;28;20060;-74
2023/12/26 09:38:12;;;;;;;13.27;3.13;;;8.90;99.90;;;;;;5053109;28;20045;-72
2023/12/26 09:40:38;;;;;;;15.90;3.53;;;8.90;99.90;;;;;;5053751;28;20483;-72
2023/12/26 09:43:04;;;;;;;14.85;3.35;;;8.90;99.90;;;;;;5050896;28;20060;-73
2023/12/26 09:45:34;;;;;;;13.90;3.00;;;8.90;99.90;;;;;;5050220;28;20041;-72
2023/12/26 09:48:00;;;;;;;16.65;3.22;;;8.90;99.90;;;;;;5051474;28;20687;-73
2023/12/26 09:50:26;;;;;;;14.05;3.40;;;8.90;99.90;;;;;;5051721;28;20049;-73
2023/12/26 09:52:56;;;;;;;13.68;3.15;;;8.90;99.90;;;;;;5052454;28;20458;-72
2023/12/26 09:55:22;;;;;;;16.98;3.22;;;8.90;99.90;;;;;;5051643;28;20045;-73
2023/12/26 09:57:49;;;;;;;14.52;3.53;;;8.90;99.90;;;;;;5044633;28;20045;-75
2023/12/26 10:00:15;;;;;;;14.87;1.80;;;8.90;99.90;;;;;;5051734;28;20063;-74
2023/12/26 10:02:43;;;;;;;9.80;2.10;;;8.90;99.90;;;;;;5045959;28;20706;-75
2023/12/26 10:05:10;;;;;;;14.45;3.22;;;9.00;99.90;;;;;;5050266;28;20551;-75
2023/12/26 10:07:36;;;;;;;10.02;2.00;;;9.00;99.90;;;;;;5051285;28;20048;-76
2023/12/26 10:10:02;;;;;;;10.48;1.77;;;9.10;99.90;;;;;;5051689;28;20056;-75
2023/12/26 10:12:31;;;;;;;14.45;2.05;;;9.00;99.90;;;;;;5053674;28;20067;-75
2023/12/26 10:15:02;;;;;;;6.95;1.23;;;9.10;99.90;;;;;;5061314;28;20053;-75
2023/12/26 10:17:28;;;;;;;12.85;3.22;;;9.10;99.90;;;;;;5062190;28;20041;-77
2023/12/26 10:19:58;;;;;;;14.93;3.80;;;9.10;99.90;;;;;;5056506;28;20042;-73
2023/12/26 10:22:25;;;;;;;10.95;1.42;;;9.20;99.90;;;;;;5056908;28;20045;-74
2023/12/26 10:24:51;;;;;;;11.88;1.95;;;9.10;99.90;;;;;;5058121;28;20145;-74
2023/12/26 10:27:17;;;;;;;15.55;3.33;;;9.10;99.90;;;;;;5056466;28;20137;-74
2023/12/26 10:29:51;;;;;;;14.90;3.10;;;9.10;99.90;;;;;;5048250;28;20500;-74
2023/12/26 10:32:17;;;;;;;15.13;1.98;;;9.10;99.90;;;;;;5048320;28;20033;-74
2023/12/26 10:34:42;;;;;;;14.15;2.03;;;9.10;99.90;;;;;;5054894;28;20472;-74
2023/12/26 10:37:09;;;;;;;15.63;3.45;;;9.10;99.90;;;;;;5044230;28;20499;-74
2023/12/26 10:39:35;;;;;;;14.60;3.75;;;9.10;99.90;;;;;;5044921;28;20049;-74
2023/12/26 10:42:02;;;;;;;17.17;4.15;;;9.20;99.90;;;;;;5040070;28;20053;-73
2023/12/26 10:45:06;;;;;;;15.95;3.63;;;9.30;99.90;;;;;;5037255;28;20131;-74
2023/12/26 10:47:33;;;;;;;16.45;3.92;;;9.40;99.90;;;;;;5051321;28;20412;-77
2023/12/26 10:50:05;;;;;;;13.93;3.58;;;9.30;99.90;;;;;;5046812;28;20056;-75
2023/12/26 10:52:31;;;;;;;18.40;3.75;;;9.30;99.90;;;;;;5047923;28;20037;-74
2023/12/26 10:55:02;;;;;;;19.60;4.10;;;9.30;99.90;;;;;;5046122;28;20114;-74
2023/12/26 10:57:32;;;;;;;20.27;4.18;;;9.30;99.90;;;;;;5046160;28;20052;-74
2023/12/26 13:51:44;;;;;;;9.57;2.13;;;9.20;99.90;;;;;;5045781;28;20049;-73
2023/12/26 13:54:12;;;;;;;12.55;3.22;;;9.20;99.90;;;;;;5050948;28;20048;-73
2023/12/26 13:56:38;;;;;;;10.65;2.35;;;9.20;99.90;;;;;;5042419;28;20040;-73
2023/12/26 13:59:03;;;;;;;13.75;3.17;;;9.20;99.90;;;;;;5044752;28;20045;-73
2023/12/26 14:01:29;;;;;;;14.80;1.58;;;9.20;99.90;;;;;;5041822;28;20056;-73
2023/12/26 14:03:56;;;;;;;5.97;1.42;;;9.20;99.90;;;;;;5045119;28;20602;-74
2023/12/26 14:06:22;;;;;;;16.23;3.45;;;9.20;99.90;;;;;;5047615;28;20049;-73
2023/12/26 14:08:49;;;;;;;15.68;3.10;;;9.20;99.90;;;;;;5045042;28;20195;-72
2023/12/26 14:11:18;;;;;;;5.88;1.30;;;9.20;99.90;;;;;;5049033;28;20679;-73
2023/12/26 14:13:47;;;;;;;12.38;2.03;;;9.20;99.90;;;;;;5046635;28;20075;-73
2023/12/26 14:16:14;;;;;;;10.85;1.65;;;9.10;99.90;;;;;;5043328;28;20041;-72
2023/12/26 14:18:39;;;;;;;15.68;3.60;;;9.10;99.90;;;;;;5043800;28;20091;-73
2023/12/26 14:21:08;;;;;;;10.45;1.38;;;9.00;99.90;;;;;;5043892;28;20053;-71
2023/12/26 14:23:34;;;;;;;6.00;1.10;;;8.90;99.90;;;;;;5033618;28;20033;-72
2023/12/26 14:26:00;;;;;;;7.13;0.60;;;8.70;99.90;;;;;;5049816;28;20048;-73
2023/12/26 14:28:25;;;;;;;5.05;1.10;;;8.60;99.90;;;;;;5050676;28;20037;-72
2023/12/26 14:30:51;;;;;;;7.57;0.75;;;8.60;99.90;;;;;;5046772;28;20041;-73
2023/12/26 14:33:19;;;;;;;11.63;2.58;;;8.50;99.90;;;;;;5042198;28;20485;-73
2023/12/26 14:35:46;;;;;;;6.85;1.08;;;8.50;99.90;;;;;;5039467;28;20535;-72
2023/12/26 14:38:12;;;;;;;6.88;1.02;;;8.40;99.90;;;;;;5047124;28;20045;-72
2023/12/26 14:40:38;;;;;;;8.65;2.10;;;8.40;99.90;;;;;;5050014;28;20063;-72
2023/12/26 14:43:04;;;;;;;6.85;0.95;;;8.40;99.90;;;;;;5043513;28;20045;-72
2023/12/26 14:45:30;;;;;;;5.60;0.87;;;8.30;99.90;;;;;;5041022;28;20048;-72
2023/12/26 14:47:56;;;;;;;6.55;0.75;;;8.30;99.90;;;;;;5044834;28;20443;-72
2023/12/26 14:50:21;;;;;;;6.95;0.80;;;8.20;99.90;;;;;;5043624;28;20040;-73
2023/12/26 14:52:47;;;;;;;5.22;0.80;;;8.20;99.90;;;;;;5047344;28;20052;-73
2023/12/26 14:55:13;;;;;;;6.30;1.40;;;8.20;99.90;;;;;;5041049;28;20052;-72
2023/12/26 14:57:38;;;;;;;2.20;0.50;;;8.30;99.90;;;;;;5049827;28;20047;-72
2023/12/26 15:00:04;;;;;;;1.42;0.28;;;8.20;99.90;;;;;;5044095;28;20120;-73
2023/12/26 15:02:32;;;;;;;8.50;1.70;;;8.20;99.90;;;;;;5047476;28;20602;-72
2023/12/26 15:04:58;;;;;;;5.82;1.10;;;8.20;99.90;;;;;;5048349;28;20071;-73
2023/12/26 15:07:24;;;;;;;5.28;0.75;;;8.20;99.90;;;;;;5040275;28;20037;-72
2023/12/26 15:09:49;;;;;;;1.60;0.32;;;8.20;99.90;;;;;;5041521;28;20471;-73
2023/12/26 15:12:15;;;;;;;5.85;1.15;;;8.10;99.90;;;;;;5044219;28;20041;-72
2023/12/26 15:14:41;;;;;;;6.70;1.25;;;8.10;99.90;;;;;;5049613;28;20052;-73
2023/12/26 15:17:07;;;;;;;10.75;0.93;;;8.10;99.90;;;;;;5049234;28;20047;-75
2023/12/26 15:19:32;;;;;;;6.43;1.17;;;8.10;99.90;;;;;;5054159;28;20049;-75
2023/12/26 15:21:58;;;;;;;6.07;1.40;;;8.10;99.90;;;;;;5050622;28;20053;-72
2023/12/26 15:24:24;;;;;;;7.93;1.60;;;8.10;99.90;;;;;;5044533;28;20447;-72
2023/12/26 15:26:50;;;;;;;7.15;1.30;;;8.00;99.90;;;;;;5040611;28;21009;-72
2023/12/26 15:29:16;;;;;;;5.72;1.30;;;8.00;99.90;;;;;;5047061;28;20132;-71
2023/12/26 15:31:44;;;;;;;8.90;1.55;;;8.00;99.90;;;;;;5045003;28;20374;-72
2023/12/26 15:34:10;;;;;;;8.48;1.52;;;7.90;99.90;;;;;;5043391;28;20103;-71
2023/12/26 15:36:36;;;;;;;7.03;1.60;;;7.90;99.90;;;;;;5035325;28;20061;-72
2023/12/26 15:39:01;;;;;;;7.93;1.70;;;7.80;99.90;;;;;;5054592;28;20049;-73